Time;durP1;ratioP1;P1;durP2;ratioP2;P2;SDS_P1;SDS_P2;PMS_P1;PMS_P2;Temp;Humidity;BMP_temperature;BMP_pressure;BME280_temperature;BME280_humidity;BME280_pressure;Samples;Min_cycle;Max_cycle;Signal;HPM_P1;HPM_P2
2023/03/14 00:01:24;;;;;;;10.10;5.30;;;;;;;4.53;60.14;99171.12;107509;1254;75033;-40
2023/03/14 00:03:54;;;;;;;8.60;4.80;;;;;;;4.55;60.13;99168.81;107505;1254;69889;-40
2023/03/14 00:06:23;;;;;;;7.50;4.80;;;;;;;4.55;60.11;99163.98;107489;1253;73834;-39
2023/03/14 00:08:51;;;;;;;9.00;5.10;;;;;;;4.57;60.04;99162.11;107490;1254;60759;-40
2023/03/14 00:11:21;;;;;;;8.50;4.80;;;;;;;4.58;60.00;99158.03;107464;1254;61520;-40
2023/03/14 00:13:50;;;;;;;12.10;5.40;;;;;;;4.58;60.10;99157.34;107547;1259;74829;-40
2023/03/14 00:16:18;;;;;;;7.40;5.10;;;;;;;4.58;60.17;99154.87;107500;1254;69975;-40
2023/03/14 00:18:47;;;;;;;7.10;4.20;;;;;;;4.56;60.22;99148.52;107561;1254;72667;-40
2023/03/14 00:21:15;;;;;;;8.10;4.80;;;;;;;4.54;60.33;99142.39;107495;1254;60726;-40
2023/03/14 00:23:46;;;;;;;10.10;5.40;;;;;;;4.53;60.43;99143.44;107512;1253;61284;-40
2023/03/14 00:26:17;;;;;;;8.50;5.20;;;;;;;4.51;60.69;99137.50;107517;1254;74864;-40
2023/03/14 00:28:45;;;;;;;9.90;5.90;;;;;;;4.48;60.69;99141.59;107529;1253;69989;-39
2023/03/14 00:31:15;;;;;;;6.70;3.70;;;;;;;4.46;60.97;99134.86;107472;1254;73782;-40
2023/03/14 00:33:44;;;;;;;9.60;5.40;;;;;;;4.44;61.32;99132.02;107456;1253;60637;-40
2023/03/14 00:36:16;;;;;;;13.40;6.10;;;;;;;4.42;61.17;99128.05;107537;1254;61583;-40
2023/03/14 00:38:47;;;;;;;10.50;5.50;;;;;;;4.41;61.35;99132.95;107527;1254;74960;-40
2023/03/14 00:41:25;;;;;;;10.10;5.20;;;;;;;4.39;61.47;99128.23;107487;1254;69694;-39
2023/03/14 00:43:54;;;;;;;8.00;5.70;;;;;;;4.43;61.56;99126.83;107479;1254;73843;-40
2023/03/14 00:46:22;;;;;;;8.20;5.30;;;;;;;4.48;61.41;99120.16;107447;1254;60752;-39
2023/03/14 00:48:51;;;;;;;11.30;6.10;;;;;;;4.50;61.51;99120.15;107517;1253;61607;-40
2023/03/14 00:51:20;;;;;;;8.30;5.50;;;;;;;4.50;61.59;99122.30;107529;1254;74995;-40
2023/03/14 00:53:48;;;;;;;8.50;5.80;;;;;;;4.49;61.47;99121.79;107511;1254;70095;-40
2023/03/14 00:56:17;;;;;;;11.50;5.70;;;;;;;4.48;61.54;99118.58;107505;1254;72338;-40
2023/03/14 00:58:46;;;;;;;10.70;5.90;;;;;;;4.47;61.61;99121.46;107486;1253;60695;-40
2023/03/14 01:01:17;;;;;;;8.60;6.00;;;;;;;4.45;61.60;99120.55;107524;1253;61569;-40
2023/03/14 01:03:46;;;;;;;10.70;5.80;;;;;;;4.40;61.50;99121.34;107521;1259;74575;-40
2023/03/14 01:06:19;;;;;;;10.00;6.00;;;;;;;4.34;62.00;99126.80;107508;1254;69853;-40
2023/03/14 01:08:47;;;;;;;8.60;6.00;;;;;;;4.31;61.99;99126.05;107503;1254;72463;-40
2023/03/14 01:11:27;;;;;;;8.30;5.70;;;;;;;4.27;62.10;99121.24;107491;1253;60536;-40
2023/03/14 01:13:56;;;;;;;9.10;5.60;;;;;;;4.24;62.12;99126.95;107499;1254;61445;-40
2023/03/14 01:16:26;;;;;;;10.80;5.50;;;;;;;4.20;62.46;99123.56;107497;1254;75070;-40
2023/03/14 01:19:00;;;;;;;8.10;4.80;;;;;;;4.23;62.34;99126.91;107523;1254;69847;-40
2023/03/14 01:21:31;;;;;;;9.50;5.10;;;;;;;4.29;62.17;99127.74;107483;1254;74156;-39
2023/03/14 01:24:00;;;;;;;6.80;4.90;;;;;;;4.30;62.14;99122.02;107503;1254;60432;-40
2023/03/14 01:26:35;;;;;;;6.30;4.60;;;;;;;4.29;62.00;99123.39;107388;1253;61332;-39
2023/03/14 01:29:04;;;;;;;8.80;5.30;;;;;;;4.27;62.09;99119.45;107382;1259;74045;-40
2023/03/14 01:31:35;;;;;;;9.60;4.90;;;;;;;4.24;62.17;99123.50;107421;1253;69282;-39
2023/03/14 01:34:04;;;;;;;9.20;5.70;;;;;;;4.21;62.31;99124.43;107519;1254;73665;-40
2023/03/14 01:36:32;;;;;;;9.80;5.60;;;;;;;4.16;62.32;99125.74;107435;1259;60668;-40
2023/03/14 01:39:08;;;;;;;6.50;5.20;;;;;;;4.10;62.43;99118.71;107512;1254;61408;-39
2023/03/14 01:41:39;;;;;;;8.80;5.60;;;;;;;4.01;62.60;99114.84;107515;1259;74959;-40
2023/03/14 01:44:11;;;;;;;8.70;5.00;;;;;;;3.94;62.72;99112.61;107483;1254;69948;-40
2023/03/14 01:46:42;;;;;;;7.90;5.40;;;;;;;3.87;62.99;99111.44;107520;1253;72902;-40
2023/03/14 01:49:10;;;;;;;;;;;;;;;3.79;63.15;99108.03;107531;1254;63245;-40
2023/03/14 01:51:56;;;;;;;8.20;4.40;;;;;;;3.76;63.30;99110.76;107506;1254;61051;-39
2023/03/14 01:54:40;;;;;;;8.30;4.50;;;;;;;3.78;63.14;99108.13;107489;1254;74855;-40
2023/03/14 01:57:30;;;;;;;9.40;5.40;;;;;;;3.75;63.17;99113.59;107537;1254;67739;-39
2023/03/14 02:00:13;;;;;;;8.10;4.60;;;;;;;3.71;63.24;99111.42;107479;1254;73861;-40
2023/03/14 02:02:50;;;;;;;7.10;5.00;;;;;;;3.64;63.19;99106.70;107463;1254;60945;-39
2023/03/14 02:05:26;;;;;;;8.30;4.20;;;;;;;3.59;63.19;99116.12;107371;1259;61370;-40
2023/03/14 02:08:00;;;;;;;7.40;5.10;;;;;;;3.52;63.27;99113.55;107437;1254;73899;-39
2023/03/14 02:10:48;;;;;;;8.00;5.40;;;;;;;3.44;63.56;99108.83;107476;1254;69895;-40
2023/03/14 02:13:19;;;;;;;8.10;5.00;;;;;;;3.36;63.93;99103.15;107502;1254;72855;-40
2023/03/14 02:15:59;;;;;;;11.20;5.30;;;;;;;3.29;64.02;99102.85;107448;1254;60740;-38
2023/03/14 02:18:57;;;;;;;8.50;4.80;;;;;;;3.21;64.27;99100.70;107384;1253;60303;-39
2023/03/14 02:22:13;;;;;;;9.10;5.00;;;;;;;3.22;64.30;99099.16;107440;1254;73749;-38
2023/03/14 02:25:05;;;;;;;6.00;4.60;;;;;;;3.18;64.52;99101.60;107511;1254;69964;-38
2023/03/14 02:27:40;;;;;;;9.60;4.90;;;;;;;3.13;64.55;99103.11;107496;1253;72571;-39
2023/03/14 02:30:20;;;;;;;9.10;4.80;;;;;;;3.09;64.89;99103.39;107532;1254;60446;-39
2023/03/14 02:32:52;;;;;;;7.70;5.50;;;;;;;3.03;64.81;99098.30;107528;1253;60781;-39
2023/03/14 02:35:22;;;;;;;12.90;5.80;;;;;;;3.00;65.01;99098.76;107518;1254;73616;-40
2023/03/14 02:38:08;;;;;;;8.60;6.00;;;;;;;2.96;65.29;99092.95;107493;1254;69885;-40
2023/03/14 02:40:42;;;;;;;7.60;5.10;;;;;;;2.89;65.31;99097.41;107498;1254;73904;-39
2023/03/14 02:43:11;;;;;;;7.80;5.00;;;;;;;2.91;65.47;99096.34;107541;1254;61162;-40
2023/03/14 02:45:48;;;;;;;8.90;5.40;;;;;;;2.94;65.52;99105.66;107478;1254;60746;-40
2023/03/14 02:48:38;;;;;;;10.70;5.50;;;;;;;2.93;65.44;99110.58;107508;1254;74875;-39
2023/03/14 02:51:07;;;;;;;7.60;5.20;;;;;;;2.90;65.63;99121.11;107491;1253;69622;-40
2023/03/14 02:53:39;;;;;;;8.80;4.60;;;;;;;2.87;65.61;99120.92;107533;1254;72433;-40
2023/03/14 02:56:10;;;;;;;8.90;5.20;;;;;;;2.85;65.72;99128.00;107599;1257;60430;-40
2023/03/14 02:58:39;;;;;;;8.20;5.40;;;;;;;2.83;65.93;99126.52;107624;1254;61208;-41
2023/03/14 03:01:19;;;;;;;9.30;5.00;;;;;;;2.81;65.82;99135.27;107586;1254;74744;-40
2023/03/14 03:03:49;;;;;;;7.20;4.60;;;;;;;2.76;65.91;99133.46;107568;1254;70125;-39
2023/03/14 03:06:20;;;;;;;8.30;4.70;;;;;;;2.77;66.02;99129.85;107640;1254;71362;-39
2023/03/14 03:08:48;;;;;;;7.80;3.90;;;;;;;2.81;65.81;99125.13;107555;1257;60612;-39
2023/03/14 03:11:17;;;;;;;8.10;4.60;;;;;;;2.82;65.99;99120.98;107600;1254;60309;-40
2023/03/14 03:13:47;;;;;;;8.70;4.70;;;;;;;2.81;65.85;99120.21;107568;1254;74777;-40
2023/03/14 03:16:22;;;;;;;11.00;4.60;;;;;;;2.79;66.08;99123.33;106848;1254;1003584;-40
2023/03/14 03:18:52;;;;;;;;;;;;;;;2.75;66.06;99117.50;107574;1253;74001;-41
2023/03/14 03:21:23;;;;;;;7.00;4.90;;;;;;;2.65;66.35;99116.98;107575;1254;60682;-39
2023/03/14 03:23:53;;;;;;;8.80;4.50;;;;;;;2.53;66.68;99109.48;107419;1254;203154;-40
2023/03/14 03:29:05;;;;;;;5.90;4.10;;;;;;;2.51;67.01;99112.67;104279;1293;599676;-39
2023/03/14 03:31:37;;;;;;;7.20;4.40;;;;;;;2.56;66.81;99111.36;106768;1266;60899;-39
2023/03/14 03:34:05;;;;;;;7.10;4.60;;;;;;;2.59;66.76;99107.75;106914;1262;60494;-39
2023/03/14 03:36:34;;;;;;;6.90;4.60;;;;;;;2.55;66.85;99101.16;106934;1262;73265;-40
2023/03/14 03:39:03;;;;;;;9.00;4.50;;;;;;;2.53;66.77;99095.02;106866;1263;69924;-39
2023/03/14 03:41:36;;;;;;;7.90;4.30;;;;;;;2.50;66.87;99090.08;106693;1267;209584;-40
2023/03/14 03:44:05;;;;;;;6.60;4.30;;;;;;;2.48;66.90;99088.27;106925;1260;59557;-39
2023/03/14 03:46:34;;;;;;;6.30;4.80;;;;;;;2.46;66.94;99093.76;106898;1260;61642;-39
2023/03/14 03:49:03;;;;;;;9.00;4.30;;;;;;;2.41;67.14;99090.94;106848;1261;73442;-39
2023/03/14 03:51:31;;;;;;;8.20;4.90;;;;;;;2.38;67.16;99085.67;106933;1265;69240;-39
2023/03/14 03:54:01;;;;;;;6.40;3.00;;;;;;;2.43;66.91;99084.77;107224;1257;74203;-40
2023/03/14 03:56:33;;;;;;;6.90;4.30;;;;;;;2.45;67.09;99089.47;107297;1257;60390;-40
2023/03/14 03:59:04;;;;;;;7.30;4.40;;;;;;;2.45;66.93;99087.45;107252;1256;62258;-39
2023/03/14 04:01:34;;;;;;;7.40;4.20;;;;;;;2.45;66.96;99085.74;107189;1257;73457;-39
2023/03/14 04:04:03;;;;;;;8.30;4.30;;;;;;;2.43;67.04;99088.42;107246;1257;69621;-39
2023/03/14 04:06:31;;;;;;;6.70;4.50;;;;;;;2.39;66.78;99085.04;107251;1257;72367;-40
2023/03/14 04:09:01;;;;;;;;;;;;;;;2.34;67.01;99086.64;107248;1257;60235;-39
2023/03/14 04:11:49;;;;;;;7.10;4.80;;;;;;;2.22;67.14;99083.46;107297;1257;61009;-40
2023/03/14 04:14:23;;;;;;;5.60;4.10;;;;;;;2.13;67.47;99088.95;107275;1257;74639;-39
2023/03/14 04:17:11;;;;;;;8.00;4.30;;;;;;;2.21;67.47;99079.90;107313;1257;69275;-40
2023/03/14 04:19:43;;;;;;;5.80;4.40;;;;;;;2.25;66.99;99081.30;107300;1256;73539;-39
2023/03/14 04:22:12;;;;;;;7.30;4.80;;;;;;;2.26;66.93;99080.95;107240;1257;60758;-39
2023/03/14 04:24:47;;;;;;;8.50;4.40;;;;;;;2.23;66.67;99070.91;107298;1256;61492;-39
2023/03/14 04:27:16;;;;;;;6.80;4.60;;;;;;;2.20;66.77;99065.59;107272;1262;74168;-39
2023/03/14 04:29:47;;;;;;;6.50;4.40;;;;;;;2.19;66.72;99060.42;107312;1256;69613;-40
2023/03/14 04:32:19;;;;;;;6.00;5.20;;;;;;;2.18;66.58;99051.73;107226;1257;73592;-40
2023/03/14 04:34:48;;;;;;;7.30;5.00;;;;;;;2.16;66.65;99052.96;107319;1257;60735;-39
2023/03/14 04:37:17;;;;;;;4.70;3.60;;;;;;;2.19;66.29;99048.40;107313;1256;61218;-40
2023/03/14 04:39:46;;;;;;;7.90;4.80;;;;;;;2.24;66.12;99051.59;107270;1257;74347;-40
2023/03/14 04:42:19;;;;;;;6.40;4.90;;;;;;;2.22;65.88;99041.69;107328;1256;70116;-40
2023/03/14 04:44:49;;;;;;;6.60;4.90;;;;;;;2.22;65.58;99039.74;107273;1260;73377;-40
2023/03/14 04:47:19;;;;;;;5.90;4.90;;;;;;;2.21;65.53;99043.00;107286;1257;60486;-40
2023/03/14 04:49:50;;;;;;;7.70;4.70;;;;;;;2.21;65.57;99042.40;107296;1257;61222;-39
2023/03/14 04:52:19;;;;;;;10.00;5.40;;;;;;;2.19;65.46;99035.35;107320;1256;73457;-39
2023/03/14 04:54:47;;;;;;;6.50;5.00;;;;;;;2.19;65.49;99034.97;107242;1257;69868;-39
2023/03/14 04:57:21;;;;;;;7.10;5.10;;;;;;;2.20;65.24;99025.69;107253;1257;73932;-39
2023/03/14 04:59:50;;;;;;;5.90;4.60;;;;;;;2.25;64.91;99032.23;107314;1257;61321;-39
2023/03/14 05:02:51;;;;;;;7.00;5.10;;;;;;;2.38;64.62;99022.67;106941;1257;61384;-39
2023/03/14 05:05:40;;;;;;;5.90;4.60;;;;;;;2.40;64.45;99021.41;107293;1257;74674;-39
2023/03/14 05:08:24;;;;;;;6.30;4.70;;;;;;;2.48;64.11;99028.94;107226;1257;69682;-39
2023/03/14 05:11:13;;;;;;;8.10;4.90;;;;;;;2.54;63.90;99037.64;107236;1257;73483;-39
2023/03/14 05:14:01;;;;;;;11.40;5.00;;;;;;;2.59;63.61;99059.77;107262;1257;59782;-39
2023/03/14 05:16:43;;;;;;;8.30;4.30;;;;;;;2.64;63.05;99065.24;107239;1257;61253;-39
2023/03/14 05:19:37;;;;;;;6.20;4.80;;;;;;;2.71;63.06;99086.50;107275;1257;74227;-39
2023/03/14 05:22:25;;;;;;;7.40;4.40;;;;;;;2.74;62.99;99084.02;107282;1257;69714;-39
2023/03/14 05:24:58;;;;;;;6.40;4.10;;;;;;;2.76;62.77;99083.62;107218;1257;73833;-39
2023/03/14 05:27:59;;;;;;;6.50;4.20;;;;;;;2.87;62.52;99078.05;107002;1257;61308;-39
2023/03/14 05:30:51;;;;;;;6.90;4.10;;;;;;;2.95;62.36;99063.58;107280;1256;60431;-39
2023/03/14 05:33:42;;;;;;;5.60;3.90;;;;;;;3.02;62.30;99066.64;107214;1257;74360;-40
2023/03/14 05:36:53;;;;;;;7.40;4.30;;;;;;;3.06;61.78;99065.73;106793;1268;69605;-40
2023/03/14 05:39:48;;;;;;;6.20;4.00;;;;;;;3.09;61.95;99064.61;106794;1264;73761;-40
2023/03/14 05:42:40;;;;;;;7.00;4.70;;;;;;;3.09;61.61;99069.15;107178;1257;60914;-39
2023/03/14 05:45:32;;;;;;;5.00;4.30;;;;;;;3.09;61.34;99074.48;107157;1257;61238;-39
2023/03/14 05:48:23;;;;;;;6.90;4.00;;;;;;;3.10;61.58;99072.90;107025;1257;74499;-39
2023/03/14 05:51:21;;;;;;;8.00;4.40;;;;;;;3.10;61.80;99064.42;106826;1257;70015;-39
2023/03/14 05:54:25;;;;;;;7.50;4.00;;;;;;;3.10;61.72;99070.26;106793;1265;73901;-39
2023/03/14 05:57:20;;;;;;;6.90;4.00;;;;;;;3.11;61.88;99075.80;107081;1260;60732;-40
2023/03/14 06:00:08;;;;;;;5.90;3.90;;;;;;;3.12;61.71;99074.78;107277;1257;61359;-39
2023/03/14 06:02:41;;;;;;;4.90;3.70;;;;;;;3.19;61.67;99076.07;107255;1257;72744;-40
2023/03/14 06:05:17;;;;;;;7.40;4.00;;;;;;;3.26;61.70;99078.92;105649;1257;1003422;-39
2023/03/14 06:07:46;;;;;;;5.90;4.10;;;;;;;3.30;61.54;99075.05;107153;1260;73580;-39
2023/03/14 06:10:16;;;;;;;6.70;4.20;;;;;;;3.34;61.56;99074.87;107165;1257;60682;-39
2023/03/14 06:12:45;;;;;;;;;;;;;;;3.37;61.34;99075.19;107208;1257;60617;-39
2023/03/14 06:15:15;;;;;;;4.90;4.00;;;;;;;3.34;61.13;99076.02;107262;1260;74273;-39
2023/03/14 06:17:45;;;;;;;6.20;3.50;;;;;;;3.34;61.68;99072.02;107270;1256;69769;-40
2023/03/14 06:20:14;;;;;;;6.10;3.90;;;;;;;3.39;61.22;99066.29;107273;1257;71686;-40
2023/03/14 06:22:43;;;;;;;8.40;4.50;;;;;;;3.43;61.14;99061.42;107201;1257;59659;-40
2023/03/14 06:25:19;;;;;;;9.10;4.70;;;;;;;3.47;60.92;99059.21;107176;1256;61478;-40
2023/03/14 06:27:55;;;;;;;5.50;3.60;;;;;;;3.51;61.05;99059.05;107182;1256;74218;-40
2023/03/14 06:30:24;;;;;;;6.50;4.40;;;;;;;3.52;61.02;99056.48;107153;1257;70047;-40
2023/03/14 06:32:55;;;;;;;6.60;4.50;;;;;;;3.53;61.05;99044.90;107250;1257;71672;-40
2023/03/14 06:35:24;;;;;;;8.20;4.60;;;;;;;3.55;60.87;99038.52;107309;1257;60437;-40
2023/03/14 06:37:53;;;;;;;6.40;4.20;;;;;;;3.55;60.75;99043.60;107211;1257;61224;-39
2023/03/14 06:40:21;;;;;;;7.90;4.40;;;;;;;3.55;60.80;99050.58;106508;1257;1003108;-40
2023/03/14 06:43:05;;;;;;;7.70;4.80;;;;;;;3.58;61.11;99049.61;106451;1257;1003074;-40
2023/03/14 06:45:35;;;;;;;8.50;4.50;;;;;;;3.61;60.97;99046.39;107252;1256;73695;-39
2023/03/14 06:48:06;;;;;;;8.10;3.90;;;;;;;3.72;60.59;99045.77;107300;1257;59833;-39
2023/03/14 06:50:40;;;;;;;5.60;4.10;;;;;;;3.84;60.14;99042.56;107309;1257;60171;-39
2023/03/14 06:53:12;;;;;;;6.50;3.50;;;;;;;3.92;59.76;99040.21;107291;1256;74208;-39
2023/03/14 06:55:42;;;;;;;6.30;4.00;;;;;;;4.00;59.44;99046.41;107264;1257;68234;-40
2023/03/14 06:58:12;;;;;;;6.50;3.90;;;;;;;4.06;59.35;99035.21;107224;1257;73999;-39
2023/03/14 07:00:43;;;;;;;6.70;4.40;;;;;;;4.10;59.10;99025.98;107146;1257;60426;-40
2023/03/14 07:03:14;;;;;;;5.20;3.40;;;;;;;4.17;59.23;99025.77;107233;1257;61175;-39
2023/03/14 07:05:45;;;;;;;6.40;4.20;;;;;;;4.28;58.85;99015.14;107232;1257;73905;-39
2023/03/14 07:08:14;;;;;;;6.30;3.80;;;;;;;4.40;59.14;99011.27;107259;1256;70078;-39
2023/03/14 07:10:42;;;;;;;8.70;4.10;;;;;;;4.56;59.18;99014.67;107258;1257;72634;-39
2023/03/14 07:13:12;;;;;;;6.30;4.40;;;;;;;4.71;58.17;99024.57;107317;1257;59660;-39
2023/03/14 07:15:50;;;;;;;6.10;4.00;;;;;;;4.87;57.74;99022.61;107233;1257;61304;-40
2023/03/14 07:18:19;;;;;;;7.40;4.60;;;;;;;5.01;58.25;99022.98;107241;1256;74238;-40
2023/03/14 07:20:47;;;;;;;8.50;4.20;;;;;;;5.18;57.66;99046.68;107258;1256;67838;-40
2023/03/14 07:23:19;;;;;;;7.80;4.10;;;;;;;5.32;55.76;99034.80;107205;1257;73895;-40
2023/03/14 07:25:50;;;;;;;8.70;4.20;;;;;;;5.41;55.74;99027.52;107200;1257;60490;-40
2023/03/14 07:28:20;;;;;;;7.20;4.40;;;;;;;5.52;56.09;99034.34;107271;1257;60301;-40
2023/03/14 07:30:50;;;;;;;6.80;4.10;;;;;;;5.66;55.74;99039.31;107251;1257;73092;-40
2023/03/14 07:33:23;;;;;;;6.80;4.40;;;;;;;5.80;55.57;99026.32;107164;1257;69852;-40
2023/03/14 07:35:51;;;;;;;5.80;4.10;;;;;;;5.94;54.48;99019.27;107182;1257;73904;-40
2023/03/14 07:38:20;;;;;;;4.70;3.70;;;;;;;6.05;53.85;99018.69;107161;1257;60620;-40
2023/03/14 07:41:13;;;;;;;5.20;3.70;;;;;;;6.18;53.98;99021.86;107230;1257;61326;-40
2023/03/14 07:43:47;;;;;;;6.90;4.10;;;;;;;6.29;53.75;99024.66;107260;1257;74220;-41
2023/03/14 07:46:19;;;;;;;5.80;3.90;;;;;;;6.40;53.25;99020.32;107296;1257;69960;-40
2023/03/14 07:48:49;;;;;;;7.10;3.90;;;;;;;6.53;53.43;99014.77;107297;1260;73843;-39
2023/03/14 07:51:17;;;;;;;4.50;3.70;;;;;;;6.69;53.75;99003.29;107299;1256;60455;-39
2023/03/14 07:53:47;;;;;;;7.40;3.90;;;;;;;6.89;53.36;99008.56;107327;1257;61422;-39
2023/03/14 07:56:16;;;;;;;5.90;4.00;;;;;;;7.11;52.24;99002.98;107267;1257;75132;-39
2023/03/14 07:58:44;;;;;;;6.50;3.90;;;;;;;7.24;50.83;99008.88;107312;1257;69919;-39
2023/03/14 08:01:13;;;;;;;9.10;4.50;;;;;;;7.33;51.11;99004.27;107256;1257;73832;-39
2023/03/14 08:03:42;;;;;;;9.00;4.60;;;;;;;7.44;50.75;99002.68;107277;1260;60328;-39
2023/03/14 08:06:11;;;;;;;6.10;4.40;;;;;;;7.54;50.92;99006.41;107215;1257;61529;-39
2023/03/14 08:08:39;;;;;;;7.00;4.20;;;;;;;7.65;50.33;99009.84;107236;1257;74947;-39
2023/03/14 08:11:08;;;;;;;6.40;4.20;;;;;;;7.75;50.12;99011.45;107214;1261;69980;-39
2023/03/14 08:13:37;;;;;;;6.00;3.60;;;;;;;7.85;50.71;98999.91;107281;1257;73813;-39
2023/03/14 08:16:06;;;;;;;7.60;5.00;;;;;;;7.97;50.36;98994.48;107321;1257;59763;-39
2023/03/14 08:18:37;;;;;;;9.00;4.90;;;;;;;8.10;50.21;98988.15;107288;1257;61840;-39
2023/03/14 08:21:06;;;;;;;5.90;3.80;;;;;;;8.22;49.39;98994.05;107219;1257;75158;-38
2023/03/14 08:23:36;;;;;;;4.60;3.80;;;;;;;8.34;49.21;98986.70;107259;1257;69582;-39
2023/03/14 08:26:06;;;;;;;5.80;4.10;;;;;;;8.49;49.94;98977.06;107248;1257;74034;-40
2023/03/14 08:28:35;;;;;;;5.10;3.80;;;;;;;8.66;49.53;98981.35;107256;1257;60781;-39
2023/03/14 08:31:04;;;;;;;6.70;4.70;;;;;;;8.84;48.45;98982.89;107232;1257;61518;-39
2023/03/14 08:33:34;;;;;;;7.20;4.90;;;;;;;9.00;47.46;98978.41;107202;1257;73779;-39
2023/03/14 08:36:03;;;;;;;8.20;4.90;;;;;;;9.08;47.15;98981.02;107223;1257;69962;-39
2023/03/14 08:38:32;;;;;;;5.90;4.20;;;;;;;9.15;47.64;98980.77;107277;1257;73845;-39
2023/03/14 08:41:01;;;;;;;7.10;4.70;;;;;;;9.25;47.14;98980.15;107186;1257;60785;-39
2023/03/14 08:43:30;;;;;;;7.70;4.60;;;;;;;9.30;46.18;98982.48;107243;1257;61112;-41
2023/03/14 08:45:59;;;;;;;9.10;4.80;;;;;;;9.32;46.82;98976.66;107273;1257;74168;-39
2023/03/14 08:48:34;;;;;;;8.10;4.50;;;;;;;9.40;46.18;98989.34;107215;1256;69990;-39
2023/03/14 08:51:12;;;;;;;6.20;4.60;;;;;;;9.49;45.95;98980.65;107154;1257;73846;-40
2023/03/14 08:53:41;;;;;;;6.40;4.40;;;;;;;9.53;44.91;98983.67;107227;1257;61532;-40
2023/03/14 08:56:11;;;;;;;7.10;4.80;;;;;;;9.56;45.36;98972.27;107280;1257;60411;-39
2023/03/14 08:58:41;;;;;;;7.10;4.50;;;;;;;9.60;44.94;98964.77;107292;1257;75236;-40
2023/03/14 09:01:10;;;;;;;6.10;4.00;;;;;;;9.70;45.46;98975.05;107261;1261;71098;-40
2023/03/14 09:03:38;;;;;;;6.50;3.80;;;;;;;9.80;44.52;98975.74;107233;1257;72653;-40
2023/03/14 09:06:08;;;;;;;5.80;4.20;;;;;;;9.92;44.32;98987.77;107224;1257;60493;-40
2023/03/14 09:08:38;;;;;;;6.10;3.90;;;;;;;10.04;44.51;98977.67;107255;1256;61174;-39
2023/03/14 09:11:08;;;;;;;6.90;4.70;;;;;;;10.16;43.58;98972.27;107341;1257;74115;-39
2023/03/14 09:13:44;;;;;;;7.10;4.50;;;;;;;10.28;43.56;98969.99;107246;1257;69701;-40
2023/03/14 09:16:13;;;;;;;7.50;4.50;;;;;;;10.41;43.86;98963.73;107203;1256;73978;-40
2023/03/14 09:18:42;;;;;;;9.90;4.40;;;;;;;10.56;43.28;98972.52;107304;1257;61566;-40
2023/03/14 09:21:17;;;;;;;8.70;4.60;;;;;;;10.68;43.24;98954.23;107242;1257;60468;-39
2023/03/14 09:23:46;;;;;;;6.10;4.10;;;;;;;10.82;43.76;98954.64;107259;1262;75065;-40
2023/03/14 09:26:15;;;;;;;5.10;3.70;;;;;;;11.01;43.47;98959.11;107308;1257;69984;-40
2023/03/14 09:28:43;;;;;;;6.30;4.00;;;;;;;11.15;42.71;98959.41;107316;1258;73874;-40
2023/03/14 09:31:12;;;;;;;5.70;4.00;;;;;;;11.26;42.84;98955.25;107281;1257;61506;-39
2023/03/14 09:33:40;;;;;;;9.30;4.10;;;;;;;11.40;42.42;98951.95;107336;1261;60368;-40
2023/03/14 09:36:10;;;;;;;6.20;3.90;;;;;;;11.46;42.31;98961.02;107260;1262;74041;-40
2023/03/14 09:38:39;;;;;;;5.40;3.60;;;;;;;11.53;42.63;98943.85;107299;1257;70007;-40
2023/03/14 09:41:31;;;;;;;10.40;4.10;;;;;;;11.62;41.82;98942.29;107276;1256;73961;-41
2023/03/14 09:44:05;;;;;;;6.30;3.80;;;;;;;11.76;42.22;98934.36;107242;1257;61804;-40
2023/03/14 09:46:38;;;;;;;5.90;3.80;;;;;;;11.87;42.02;98940.95;107601;1254;61436;-40
2023/03/14 09:49:12;;;;;;;4.80;3.80;;;;;;;11.98;41.94;98919.14;107593;1253;75144;-40
2023/03/14 09:51:42;;;;;;;6.10;3.70;;;;;;;12.16;41.97;98918.70;107582;1253;68713;-40
2023/03/14 09:54:21;;;;;;;4.80;3.40;;;;;;;12.33;40.69;98928.58;107373;1254;73852;-40
2023/03/14 09:56:49;;;;;;;9.40;4.00;;;;;;;12.37;40.59;98914.92;107569;1254;61541;-40
2023/03/14 09:59:19;;;;;;;;;;;;;;;12.31;40.35;98921.27;107384;1254;62289;-40
2023/03/14 10:01:47;;;;;;;8.10;3.60;;;;;;;12.23;41.14;98917.56;107524;1254;75056;-40
2023/03/14 10:04:19;;;;;;;9.90;3.40;;;;;;;12.28;41.13;98919.38;107619;1253;69948;-40
2023/03/14 10:06:48;;;;;;;5.20;3.20;;;;;;;12.38;41.03;98922.54;107576;1258;73670;-40
2023/03/14 10:09:24;;;;;;;6.80;3.50;;;;;;;12.46;40.86;98934.77;107566;1254;61584;-39
2023/03/14 10:12:01;;;;;;;4.70;3.40;;;;;;;12.45;40.48;98919.70;107530;1254;60853;-39
2023/03/14 10:14:37;;;;;;;4.10;3.10;;;;;;;12.51;41.51;98916.00;107543;1254;75012;-40
2023/03/14 10:17:09;;;;;;;4.80;2.50;;;;;;;12.68;41.55;98903.92;107579;1254;68293;-39
2023/03/14 10:19:53;;;;;;;6.60;3.60;;;;;;;12.84;41.06;98903.11;107572;1254;73617;-39
2023/03/14 10:22:40;;;;;;;6.00;3.30;;;;;;;12.96;40.79;98899.95;107469;1259;61488;-40
2023/03/14 10:25:27;;;;;;;7.80;3.10;;;;;;;13.07;40.28;98900.44;107489;1258;61549;-39
2023/03/14 10:27:56;;;;;;;5.70;3.60;;;;;;;13.12;40.05;98898.90;107605;1254;74961;-39
2023/03/14 10:30:31;;;;;;;4.00;3.10;;;;;;;13.12;39.57;98891.21;107571;1254;68742;-39
2023/03/14 10:33:08;;;;;;;6.20;3.10;;;;;;;13.10;40.23;98890.11;107563;1254;73840;-40
2023/03/14 10:35:37;;;;;;;5.20;3.00;;;;;;;13.15;41.06;98883.84;107577;1255;59885;-40
2023/03/14 10:38:12;;;;;;;6.50;3.60;;;;;;;13.23;40.19;98889.14;107620;1254;60428;-40
2023/03/14 10:40:47;;;;;;;5.70;3.10;;;;;;;13.27;40.01;98891.55;107631;1253;74804;-39
2023/03/14 10:43:19;;;;;;;7.70;3.10;;;;;;;13.28;40.17;98874.36;107436;1254;68775;-38
2023/03/14 10:45:57;;;;;;;5.30;3.10;;;;;;;13.35;40.40;98869.92;107610;1254;73510;-39
2023/03/14 10:48:34;;;;;;;4.10;2.80;;;;;;;13.50;40.44;98874.43;107475;1254;60375;-39
2023/03/14 10:51:08;;;;;;;5.10;2.90;;;;;;;13.63;39.59;98860.87;107574;1254;61258;-40
2023/03/14 10:53:41;;;;;;;5.00;3.00;;;;;;;13.72;39.51;98854.39;107579;1258;73821;-39
2023/03/14 10:56:14;;;;;;;6.30;3.60;;;;;;;13.82;39.48;98848.54;107588;1254;69676;-39
2023/03/14 10:58:44;;;;;;;6.80;3.20;;;;;;;13.91;39.01;98866.18;107636;1254;72755;-39
2023/03/14 11:01:42;;;;;;;4.30;3.10;;;;;;;13.93;38.80;98840.48;107558;1253;61397;-39
2023/03/14 11:04:20;;;;;;;3.90;2.80;;;;;;;13.99;38.20;98840.63;107573;1254;61442;-39
2023/03/14 11:07:12;;;;;;;9.80;3.10;;;;;;;14.03;38.39;98840.62;107577;1257;75006;-39
2023/03/14 11:09:48;;;;;;;4.60;2.70;;;;;;;14.01;38.13;98837.81;107593;1254;69715;-40
2023/03/14 11:12:48;;;;;;;5.20;3.00;;;;;;;14.04;38.51;98833.21;107582;1257;73853;-39
2023/03/14 11:15:27;;;;;;;4.60;3.00;;;;;;;14.11;38.11;98840.73;107562;1254;61591;-39
2023/03/14 11:17:57;;;;;;;5.70;3.30;;;;;;;14.12;38.36;98831.39;107650;1254;60331;-39
2023/03/14 11:20:47;;;;;;;8.80;3.00;;;;;;;14.24;37.90;98827.83;107618;1254;74007;-41
2023/03/14 11:23:21;;;;;;;6.60;2.80;;;;;;;14.47;38.24;98818.09;107582;1254;68727;-39
2023/03/14 11:25:55;;;;;;;4.70;2.90;;;;;;;14.63;37.02;98813.32;107576;1254;73742;-40
2023/03/14 11:28:37;;;;;;;4.30;3.00;;;;;;;14.62;36.39;98818.40;107593;1254;62100;-40
2023/03/14 11:31:14;;;;;;;7.60;3.00;;;;;;;14.51;36.27;98822.90;107541;1253;61554;-40
2023/03/14 11:33:57;;;;;;;7.00;2.70;;;;;;;14.35;36.34;98824.54;107577;1254;75089;-40
2023/03/14 11:36:39;;;;;;;2.90;2.60;;;;;;;14.24;36.68;98807.50;107607;1254;69790;-41
2023/03/14 11:39:15;;;;;;;5.80;2.50;;;;;;;14.17;36.69;98808.64;107589;1254;72324;-40
2023/03/14 11:41:49;;;;;;;3.80;2.50;;;;;;;14.15;36.38;98803.81;107602;1254;60475;-40
2023/03/14 11:44:23;;;;;;;6.10;2.40;;;;;;;14.18;36.20;98809.02;107639;1254;61394;-40
2023/03/14 11:47:16;;;;;;;4.80;3.00;;;;;;;14.14;36.11;98817.37;107662;1254;74730;-41
2023/03/14 11:49:53;;;;;;;5.10;2.60;;;;;;;14.11;35.98;98801.34;107522;1254;69935;-40
2023/03/14 11:52:33;;;;;;;4.00;2.50;;;;;;;14.11;35.67;98798.21;107589;1254;72311;-40
2023/03/14 11:55:31;;;;;;;4.50;2.60;;;;;;;14.19;35.68;98807.52;107549;1254;62909;-40
2023/03/14 11:58:03;;;;;;;4.50;2.40;;;;;;;14.30;35.61;98796.02;107413;1254;61469;-40
2023/03/14 12:00:32;;;;;;;3.40;2.40;;;;;;;14.48;35.56;98796.65;107399;1254;74554;-41
2023/03/14 12:03:19;;;;;;;4.60;2.60;;;;;;;14.62;35.01;98796.25;107376;1254;67518;-40
2023/03/14 12:06:02;;;;;;;3.10;2.30;;;;;;;14.72;35.51;98802.11;107657;1254;72627;-41
2023/03/14 12:08:39;;;;;;;2.40;1.90;;;;;;;14.86;35.00;98796.40;107372;1254;60674;-41